createdAt,value
2022-11-21T00:02:24.633Z,4.90
2022-11-21T00:04:58.114Z,4.60
2022-11-21T00:07:28.624Z,4.50
2022-11-21T00:09:59.074Z,4.45
2022-11-21T00:12:29.568Z,3.70
2022-11-21T00:14:59.939Z,3.47
2022-11-21T00:17:30.374Z,3.43
2022-11-21T00:20:03.404Z,2.87
2022-11-21T00:22:34.553Z,2.90
2022-11-21T00:25:05.009Z,2.78
2022-11-21T00:27:35.336Z,2.87
2022-11-21T00:30:05.791Z,2.63
2022-11-21T00:32:36.332Z,2.28
2022-11-21T00:35:10.923Z,1.90
2022-11-21T00:37:41.379Z,1.87
2022-11-21T00:40:14.098Z,3.13
2022-11-21T00:42:44.892Z,2.20
2022-11-21T00:45:19.648Z,1.95
2022-11-21T00:47:53.190Z,1.90
2022-11-21T00:50:26.299Z,2.10
2022-11-21T00:52:59.171Z,1.40
2022-11-21T00:55:29.653Z,1.60
2022-11-21T00:58:00.010Z,1.70
2022-11-21T01:00:30.469Z,1.50
2022-11-21T01:03:00.997Z,1.35
2022-11-21T01:05:35.663Z,1.48
2022-11-21T01:08:06.158Z,1.50
2022-11-21T01:10:38.363Z,1.40
2022-11-21T01:13:08.774Z,1.33
2022-11-21T01:15:39.151Z,1.10
2022-11-21T01:18:10.326Z,1.20
2022-11-21T01:23:15.158Z,1.40
2022-11-21T01:25:45.569Z,2.00
2022-11-21T01:28:16.152Z,1.20
2022-11-21T01:30:46.624Z,1.70
2022-11-21T01:33:17.057Z,1.25
2022-11-21T01:35:50.136Z,1.10
2022-11-21T01:38:20.557Z,1.00
2022-11-21T01:40:50.986Z,1.10
2022-11-21T01:43:21.828Z,1.30
2022-11-21T01:45:59.350Z,1.20
2022-11-21T01:48:36.692Z,1.17
2022-11-21T01:51:14.782Z,1.23
2022-11-21T01:53:51.615Z,1.07
2022-11-21T01:56:23.053Z,1.10
2022-11-21T01:58:57.292Z,1.23
2022-11-21T02:01:28.367Z,1.30
2022-11-21T02:04:01.732Z,1.10
2022-11-21T02:06:37.381Z,1.52
2022-11-21T02:09:09.242Z,0.93
2022-11-21T02:11:44.554Z,1.00
2022-11-21T02:14:15.621Z,1.10
2022-11-21T02:16:46.768Z,1.45
2022-11-21T02:19:27.324Z,0.93
2022-11-21T02:22:09.908Z,1.00
2022-11-21T02:24:46.419Z,0.90
2022-11-21T02:27:19.904Z,0.80
2022-11-21T02:29:50.379Z,1.30
2022-11-21T02:32:25.315Z,1.20
2022-11-21T02:34:55.682Z,1.08
2022-11-21T02:37:26.305Z,1.10
2022-11-21T02:39:58.876Z,1.20
2022-11-21T02:42:39.964Z,1.50
2022-11-21T02:45:18.134Z,1.40
2022-11-21T02:47:50.620Z,1.47
2022-11-21T02:50:27.084Z,1.67
2022-11-21T02:52:57.511Z,2.17
2022-11-21T02:55:29.209Z,1.55
2022-11-21T02:58:05.282Z,1.83
2022-11-21T03:00:37.222Z,1.92
2022-11-21T03:03:08.286Z,2.20
2022-11-21T03:05:39.310Z,1.73
2022-11-21T03:08:10.323Z,2.20
2022-11-21T03:10:41.081Z,1.80
2022-11-21T03:13:14.133Z,2.88
2022-11-21T03:15:44.586Z,2.17
2022-11-21T03:18:14.973Z,1.80
2022-11-21T03:20:45.609Z,2.93
2022-11-21T03:23:16.057Z,2.10
2022-11-21T03:25:46.406Z,1.90
2022-11-21T03:28:19.439Z,2.23
2022-11-21T03:30:50.873Z,2.10
2022-11-21T03:33:21.235Z,2.17
2022-11-21T03:35:51.750Z,2.00
2022-11-21T03:38:22.293Z,1.60
2022-11-21T03:40:52.711Z,1.58
2022-11-21T03:43:25.785Z,1.40
2022-11-21T03:45:56.144Z,1.20
2022-11-21T03:48:26.652Z,1.30
2022-11-21T03:50:57.991Z,1.23
2022-11-21T03:53:28.416Z,1.40
2022-11-21T03:55:58.767Z,1.27
2022-11-21T03:58:31.740Z,1.63
2022-11-21T04:01:02.186Z,1.20
2022-11-21T04:03:32.571Z,2.10
2022-11-21T04:06:03.202Z,1.30
2022-11-21T04:08:33.609Z,1.70
2022-11-21T04:11:04.006Z,1.57
2022-11-21T04:13:37.450Z,1.77
2022-11-21T04:16:08.825Z,1.25
2022-11-21T04:18:39.852Z,1.45
2022-11-21T04:21:12.204Z,1.20
2022-11-21T04:23:42.570Z,1.20
2022-11-21T04:26:13.025Z,1.57
2022-11-21T04:28:46.203Z,1.50
2022-11-21T04:31:16.782Z,1.30
2022-11-21T04:33:47.212Z,1.50
2022-11-21T04:36:17.613Z,1.77
2022-11-21T04:38:48.054Z,1.90
2022-11-21T04:41:18.487Z,1.45
2022-11-21T04:43:51.550Z,1.50
2022-11-21T04:46:21.963Z,1.73
2022-11-21T04:48:52.500Z,1.67
2022-11-21T04:51:22.929Z,1.80
2022-11-21T04:53:53.622Z,1.88
2022-11-21T04:56:24.064Z,1.80
2022-11-21T04:58:58.023Z,1.85
2022-11-21T05:01:28.468Z,1.60
2022-11-21T05:03:58.879Z,1.90
2022-11-21T05:06:29.266Z,1.50
2022-11-21T05:08:59.655Z,1.97
2022-11-21T05:11:42.380Z,3.47
2022-11-21T05:14:15.957Z,2.30
2022-11-21T05:16:46.344Z,1.98
2022-11-21T05:19:17.289Z,1.67
2022-11-21T05:21:47.772Z,1.83
2022-11-21T05:24:18.146Z,1.48
2022-11-21T05:26:48.567Z,2.00
2022-11-21T05:29:25.261Z,2.25
2022-11-21T05:31:58.400Z,1.58
2022-11-21T05:34:29.010Z,1.90
2022-11-21T05:37:01.121Z,1.80
2022-11-21T05:39:31.523Z,1.90
2022-11-21T05:42:03.309Z,2.10
2022-11-21T05:44:33.940Z,1.67
2022-11-21T05:47:04.445Z,1.87
2022-11-21T05:49:34.882Z,1.70
2022-11-21T05:52:05.368Z,1.40
2022-11-21T05:54:35.806Z,2.13
2022-11-21T05:57:06.265Z,1.58
2022-11-21T05:59:39.301Z,1.35
2022-11-21T06:02:21.955Z,1.65
2022-11-21T06:04:52.373Z,1.30
2022-11-21T06:07:22.792Z,1.40
2022-11-21T06:09:53.327Z,1.40
2022-11-21T06:12:25.711Z,1.35
2022-11-21T06:14:58.922Z,1.80
2022-11-21T06:17:29.318Z,1.77
2022-11-21T06:19:59.747Z,2.20
2022-11-21T06:22:30.097Z,2.60
2022-11-21T06:25:00.523Z,4.50
2022-11-21T06:27:32.384Z,3.33
2022-11-21T06:30:05.631Z,2.83
2022-11-21T06:32:40.544Z,3.27
2022-11-21T06:35:11.709Z,4.10
2022-11-21T06:37:42.122Z,4.25
2022-11-21T06:40:15.018Z,5.20
2022-11-21T06:42:45.538Z,5.10
2022-11-21T06:45:18.685Z,5.50
2022-11-21T06:47:49.096Z,5.50
2022-11-21T06:50:20.125Z,6.63
2022-11-21T06:52:50.561Z,7.70
2022-11-21T06:55:21.573Z,7.30
2022-11-21T06:57:52.113Z,8.10
2022-11-21T07:00:25.458Z,8.95
2022-11-21T07:03:01.566Z,10.03
2022-11-21T07:05:34.094Z,9.50
2022-11-21T07:11:03.480Z,8.13
2022-11-21T07:13:34.298Z,7.93
2022-11-21T07:16:10.012Z,8.48
2022-11-21T07:18:40.905Z,8.93
2022-11-21T07:21:12.580Z,8.07
2022-11-21T07:23:43.038Z,8.83
2022-11-21T07:26:14.034Z,7.13
2022-11-21T07:28:45.267Z,7.82
2022-11-21T07:33:48.410Z,6.80
2022-11-21T07:36:18.852Z,7.50
2022-11-21T07:38:50.006Z,6.30
2022-11-21T07:41:20.392Z,6.35
2022-11-21T07:43:50.804Z,7.00
2022-11-21T07:46:23.948Z,7.47
2022-11-21T07:48:54.345Z,7.67
2022-11-21T07:51:24.713Z,7.40
2022-11-21T07:53:55.084Z,7.13
2022-11-21T07:56:26.711Z,8.00
2022-11-21T07:58:57.174Z,7.37
2022-11-21T08:01:30.413Z,7.63
2022-11-21T08:04:00.814Z,8.60
2022-11-21T08:06:31.184Z,8.43
2022-11-21T08:09:01.565Z,8.37
2022-11-21T08:11:32.719Z,8.13
2022-11-21T08:14:03.150Z,8.80
2022-11-21T08:16:36.122Z,8.87
2022-11-21T08:19:06.839Z,9.87
2022-11-21T08:21:37.266Z,11.77
2022-11-21T08:24:13.590Z,11.20
2022-11-21T08:26:44.179Z,12.53
2022-11-21T08:29:15.981Z,12.73
2022-11-21T08:31:49.278Z,13.20
2022-11-21T08:34:19.681Z,14.43
2022-11-21T08:36:50.096Z,15.07
2022-11-21T08:39:20.670Z,15.37
2022-11-21T08:42:03.462Z,16.30
2022-11-21T08:44:34.167Z,16.57
2022-11-21T08:47:07.482Z,16.38
2022-11-21T08:49:38.239Z,15.57
2022-11-21T08:52:08.649Z,16.23
2022-11-21T08:54:39.012Z,16.30
2022-11-21T08:57:09.376Z,17.00
2022-11-21T08:59:39.950Z,16.70
2022-11-21T09:02:14.288Z,16.38
2022-11-21T09:04:44.664Z,16.03
2022-11-21T09:07:15.047Z,17.37
2022-11-21T09:09:45.470Z,15.50
2022-11-21T09:12:15.891Z,16.83
2022-11-21T09:14:58.657Z,16.57
2022-11-21T09:17:43.963Z,16.47
2022-11-21T09:20:14.492Z,16.10
2022-11-21T09:22:44.970Z,16.55
2022-11-21T09:25:15.414Z,16.47
2022-11-21T09:27:47.041Z,15.68
2022-11-21T09:30:17.946Z,16.23
2022-11-21T09:32:51.023Z,15.50
2022-11-21T09:35:21.421Z,15.53
2022-11-21T09:37:52.140Z,14.90
2022-11-21T09:40:22.827Z,14.32
2022-11-21T09:43:13.658Z,16.17
2022-11-21T09:45:50.774Z,17.60
2022-11-21T09:48:31.169Z,16.50
2022-11-21T09:51:09.066Z,15.10
2022-11-21T09:53:43.238Z,15.97
2022-11-21T09:56:20.122Z,15.03
2022-11-21T09:59:00.562Z,15.23
2022-11-21T10:01:32.138Z,15.00
2022-11-21T10:04:06.880Z,15.90
2022-11-21T10:06:47.301Z,15.37
2022-11-21T10:09:30.432Z,13.90
2022-11-21T10:12:22.505Z,14.53
2022-11-21T10:15:07.680Z,14.40
2022-11-21T10:17:55.792Z,15.53
2022-11-21T10:20:44.725Z,15.67
2022-11-21T10:23:42.120Z,15.07
2022-11-21T10:26:21.001Z,15.27
2022-11-21T10:28:56.022Z,14.53
2022-11-21T10:31:27.298Z,14.67
2022-11-21T10:36:39.248Z,15.00
2022-11-21T10:39:18.889Z,15.90
2022-11-21T10:41:56.659Z,15.53
2022-11-21T10:44:43.166Z,18.03
2022-11-21T10:47:27.632Z,17.40
2022-11-21T10:50:36.546Z,16.73
2022-11-21T10:53:32.027Z,16.90
2022-11-21T10:56:05.774Z,17.03
2022-11-21T10:58:46.100Z,18.10
2022-11-21T11:01:29.316Z,16.50
2022-11-21T11:04:27.643Z,16.23
2022-11-21T11:07:00.381Z,15.80
2022-11-21T11:09:36.735Z,15.00
2022-11-21T11:12:47.520Z,15.67
2022-11-21T11:15:23.731Z,14.47
2022-11-21T11:18:01.397Z,13.00
2022-11-21T11:20:40.139Z,12.70
2022-11-21T11:23:27.955Z,11.87
2022-11-21T11:26:02.942Z,12.00
2022-11-21T11:28:39.648Z,13.93
2022-11-21T11:31:11.785Z,13.53
2022-11-21T11:33:45.168Z,14.23
2022-11-21T11:36:19.453Z,13.53
2022-11-21T11:38:56.642Z,13.53
2022-11-21T11:45:32.201Z,18.30
2022-11-21T11:48:04.411Z,14.63
2022-11-21T11:50:39.359Z,14.47
2022-11-21T11:53:16.862Z,14.70
2022-11-21T11:55:53.166Z,13.17
2022-11-21T11:58:32.367Z,14.50
2022-11-21T12:01:08.990Z,13.80
2022-11-21T12:03:47.215Z,14.47
2022-11-21T12:06:38.285Z,14.97
2022-11-21T12:09:27.134Z,14.93
2022-11-21T12:12:13.033Z,14.73
2022-11-21T12:15:18.824Z,13.70
2022-11-21T12:17:59.168Z,14.73
2022-11-21T12:20:35.828Z,15.83
2022-11-21T12:23:08.492Z,13.90
2022-11-21T12:25:44.689Z,13.07
2022-11-21T12:28:32.854Z,12.97
2022-11-21T12:31:18.803Z,14.00
2022-11-21T12:34:01.697Z,14.50
2022-11-21T12:36:42.056Z,12.70
2022-11-21T12:39:53.369Z,13.13
2022-11-21T12:42:48.216Z,13.95
2022-11-21T12:45:45.361Z,14.77
2022-11-21T12:48:36.014Z,15.07
2022-11-21T12:52:07.051Z,16.03
2022-11-21T12:55:17.149Z,15.83
2022-11-21T12:58:11.570Z,14.80
2022-11-21T13:01:15.457Z,15.67
2022-11-21T13:04:00.310Z,15.47
2022-11-21T13:06:34.689Z,15.70
2022-11-21T13:09:10.366Z,15.60
2022-11-21T13:12:03.941Z,15.30
2022-11-21T13:14:48.071Z,15.60
2022-11-21T13:17:44.098Z,15.27
2022-11-21T13:20:32.470Z,15.27
2022-11-21T13:23:06.641Z,15.37
2022-11-21T13:25:47.428Z,15.40
2022-11-21T13:28:42.074Z,15.77
2022-11-21T13:31:35.132Z,15.07
2022-11-21T13:34:06.905Z,14.17
2022-11-21T13:36:48.998Z,16.33
2022-11-21T13:39:41.191Z,15.27
2022-11-21T13:42:28.696Z,15.00
2022-11-21T13:44:59.563Z,15.87
2022-11-21T13:48:05.556Z,15.38
2022-11-21T13:51:10.119Z,14.90
2022-11-21T13:54:21.876Z,15.47
2022-11-21T14:00:05.770Z,14.80
2022-11-21T14:03:17.845Z,14.33
2022-11-21T14:08:31.738Z,14.90
2022-11-21T14:11:23.380Z,13.73
2022-11-21T14:13:53.999Z,14.30
2022-11-21T14:16:37.763Z,14.30
2022-11-21T14:19:09.149Z,14.35
2022-11-21T14:21:39.646Z,15.80
2022-11-21T14:24:20.114Z,15.88
2022-11-21T14:26:56.161Z,17.00
2022-11-21T14:29:32.084Z,15.63
2022-11-21T14:32:02.583Z,16.80
2022-11-21T14:34:35.154Z,15.60
2022-11-21T14:37:09.661Z,15.63
2022-11-21T14:39:52.725Z,16.48
2022-11-21T14:42:39.100Z,15.00
2022-11-21T14:45:16.623Z,14.23
2022-11-21T14:47:52.332Z,14.33
2022-11-21T14:50:31.085Z,14.63
2022-11-21T14:53:03.920Z,14.30
2022-11-21T14:55:36.250Z,15.98
2022-11-21T14:58:10.440Z,15.87
2022-11-21T15:00:59.157Z,15.40
2022-11-21T15:03:30.648Z,14.33
2022-11-21T15:06:08.589Z,15.93
2022-11-21T15:11:40.800Z,17.17
2022-11-21T15:14:23.156Z,16.45
2022-11-21T15:16:56.762Z,16.23
2022-11-21T15:19:29.884Z,14.40
2022-11-21T15:22:04.243Z,14.85
2022-11-21T15:24:42.924Z,16.83
2022-11-21T15:27:36.355Z,15.00
2022-11-21T15:30:27.199Z,16.40
2022-11-21T15:33:15.741Z,15.68
2022-11-21T15:35:53.782Z,14.43
2022-11-21T15:38:36.115Z,15.60
2022-11-21T15:41:28.823Z,15.95
2022-11-21T15:44:21.422Z,17.02
2022-11-21T15:46:56.896Z,16.35
2022-11-21T15:49:34.584Z,15.75
2022-11-21T15:54:55.501Z,14.47
2022-11-21T15:57:13.577Z,15.17
2022-11-21T15:57:27.112Z,14.83
2022-11-21T15:59:57.543Z,14.93
2022-11-21T16:02:30.578Z,13.83
2022-11-21T16:05:00.922Z,12.35
2022-11-21T16:07:31.428Z,13.77
2022-11-21T16:10:01.844Z,14.43
2022-11-21T16:12:32.247Z,12.23
2022-11-21T16:15:02.605Z,10.57
2022-11-21T16:17:35.593Z,9.20
2022-11-21T16:20:06.063Z,9.20
2022-11-21T16:22:36.781Z,9.25
2022-11-21T16:25:08.473Z,8.23
2022-11-21T16:27:39.141Z,8.88
2022-11-21T16:30:11.864Z,9.15
2022-11-21T16:32:44.917Z,9.55
2022-11-21T16:35:15.420Z,9.77
2022-11-21T16:37:47.232Z,9.77
2022-11-21T16:40:18.000Z,10.63
2022-11-21T16:42:48.397Z,11.45
2022-11-21T16:45:19.043Z,11.30
2022-11-21T16:47:52.177Z,9.93
2022-11-21T16:50:22.580Z,9.70
2022-11-21T16:52:52.972Z,10.60
2022-11-21T16:55:23.345Z,10.33
2022-11-21T16:57:53.827Z,10.13
2022-11-21T17:00:24.613Z,9.68
2022-11-21T17:02:58.262Z,10.52
2022-11-21T17:05:28.651Z,10.38
2022-11-21T17:08:01.100Z,9.43
2022-11-21T17:10:34.141Z,9.73
2022-11-21T17:13:04.739Z,9.60
2022-11-21T17:15:35.093Z,10.40
2022-11-21T17:18:08.166Z,9.93
2022-11-21T17:20:38.652Z,10.17
2022-11-21T17:23:09.168Z,10.70
2022-11-21T17:25:39.579Z,10.05
2022-11-21T17:28:10.044Z,10.47
2022-11-21T17:30:44.298Z,9.37
2022-11-21T17:33:17.337Z,9.20
2022-11-21T17:35:47.759Z,9.00
2022-11-21T17:38:18.136Z,9.73
2022-11-21T17:40:48.552Z,10.13
2022-11-21T17:43:18.988Z,8.75
2022-11-21T17:45:50.647Z,9.13
2022-11-21T17:48:23.686Z,8.17
2022-11-21T17:51:04.169Z,9.80
2022-11-21T17:53:35.538Z,16.80
2022-11-21T17:56:08.140Z,9.07
2022-11-21T17:58:38.584Z,8.10
2022-11-21T18:01:11.259Z,8.63
2022-11-21T18:03:44.384Z,8.60
2022-11-21T18:06:17.234Z,18.93
2022-11-21T18:08:50.055Z,24.63
2022-11-21T18:11:22.993Z,11.60
2022-11-21T18:13:53.998Z,10.53
2022-11-21T18:16:27.352Z,9.77
2022-11-21T18:19:01.303Z,10.10
2022-11-21T18:21:35.491Z,7.90
2022-11-21T18:24:06.215Z,7.83
2022-11-21T18:26:39.175Z,8.02
2022-11-21T18:29:35.085Z,6.93
2022-11-21T18:32:02.842Z,6.73
2022-11-21T18:34:35.847Z,7.63
2022-11-21T18:37:06.247Z,21.43
2022-11-21T18:39:36.601Z,38.77
2022-11-21T18:42:07.106Z,9.83
2022-11-21T18:44:37.612Z,19.50
2022-11-21T18:47:19.626Z,11.23
2022-11-21T18:49:53.493Z,8.63
2022-11-21T18:52:24.027Z,7.93
2022-11-21T18:54:54.510Z,8.38
2022-11-21T18:57:24.937Z,7.35
2022-11-21T18:59:55.383Z,6.30
2022-11-21T19:02:25.899Z,5.53
2022-11-21T19:04:58.982Z,4.82
2022-11-21T19:07:29.399Z,6.93
2022-11-21T19:10:20.820Z,11.73
2022-11-21T19:12:50.224Z,9.63
2022-11-21T19:15:20.672Z,5.57
2022-11-21T19:17:51.115Z,18.25
2022-11-21T19:20:24.171Z,42.17
2022-11-21T19:22:54.696Z,10.57
2022-11-21T19:25:25.210Z,5.40
2022-11-21T19:27:55.715Z,6.28
2022-11-21T19:30:26.524Z,14.50
2022-11-21T19:32:57.953Z,22.38
2022-11-21T19:38:01.412Z,7.77
2022-11-21T19:40:52.576Z,5.70
2022-11-21T19:43:22.995Z,5.40
2022-11-21T19:45:58.013Z,5.53
2022-11-21T19:48:28.707Z,6.10
2022-11-21T19:51:03.212Z,5.90
2022-11-21T19:53:39.707Z,5.00
2022-11-21T19:56:16.620Z,5.30
2022-11-21T19:58:47.963Z,5.27
2022-11-21T20:03:52.887Z,5.93
2022-11-21T20:06:28.499Z,5.97
2022-11-21T20:09:01.168Z,5.97
2022-11-21T20:11:35.426Z,7.13
2022-11-21T20:14:06.312Z,11.07
2022-11-21T20:16:39.138Z,6.60
2022-11-21T20:19:12.767Z,18.17
2022-11-21T20:21:46.421Z,7.10
2022-11-21T20:24:16.984Z,6.63
2022-11-21T20:26:48.376Z,7.70
2022-11-21T20:29:19.323Z,9.33
2022-11-21T20:31:50.806Z,9.38
2022-11-21T20:34:21.302Z,7.80
2022-11-21T20:36:54.414Z,7.55
2022-11-21T20:39:30.887Z,7.90
2022-11-21T20:42:01.915Z,7.97
2022-11-21T20:45:30.148Z,8.20
2022-11-21T20:47:22.714Z,8.37
2022-11-21T20:49:53.141Z,8.50
2022-11-21T20:55:16.658Z,7.93
2022-11-21T20:57:47.125Z,11.43
2022-11-21T21:00:19.794Z,13.15
2022-11-21T21:02:50.276Z,10.53
2022-11-21T21:05:20.808Z,9.10
2022-11-21T21:07:54.022Z,18.90
2022-11-21T21:10:25.584Z,10.70
2022-11-21T21:12:56.358Z,9.57
2022-11-21T21:15:27.399Z,10.70
2022-11-21T21:17:57.925Z,10.75
2022-11-21T21:20:28.427Z,9.88
2022-11-21T21:23:01.505Z,9.75
2022-11-21T21:25:31.974Z,9.83
2022-11-21T21:28:02.303Z,9.70
2022-11-21T21:30:33.094Z,10.25
2022-11-21T21:33:03.618Z,9.02
2022-11-21T21:35:34.070Z,8.80
2022-11-21T21:38:09.063Z,9.07
2022-11-21T21:40:39.765Z,8.93
2022-11-21T21:43:10.217Z,9.27
2022-11-21T21:45:40.623Z,17.83
2022-11-21T21:48:11.086Z,12.07
2022-11-21T21:50:41.470Z,8.93
2022-11-21T21:53:14.550Z,10.13
2022-11-21T21:55:44.988Z,9.03
2022-11-21T21:58:15.329Z,9.10
2022-11-21T22:00:45.740Z,9.67
2022-11-21T22:03:16.229Z,9.60
2022-11-21T22:05:46.719Z,9.70
2022-11-21T22:08:19.823Z,9.98
2022-11-21T22:10:50.373Z,10.23
2022-11-21T22:13:20.801Z,9.93
2022-11-21T22:15:51.211Z,9.40
2022-11-21T22:18:21.609Z,9.83
2022-11-21T22:20:51.991Z,10.30
2022-11-21T22:23:25.938Z,10.63
2022-11-21T22:25:59.155Z,12.10
2022-11-21T22:28:31.494Z,20.13
2022-11-21T22:31:02.926Z,9.90
2022-11-21T22:33:33.275Z,9.57
2022-11-21T22:36:05.155Z,9.53
2022-11-21T22:38:38.503Z,9.63
2022-11-21T22:41:11.134Z,8.77
2022-11-21T22:43:41.571Z,10.03
2022-11-21T22:46:15.417Z,9.93
2022-11-21T22:48:45.984Z,9.70
2022-11-21T22:51:16.798Z,9.30
2022-11-21T22:53:52.167Z,9.43
2022-11-21T22:56:24.684Z,8.83
2022-11-21T22:58:56.167Z,8.87
2022-11-21T23:01:29.452Z,12.87
2022-11-21T23:03:59.894Z,12.30
2022-11-21T23:06:30.760Z,9.83
2022-11-21T23:09:03.797Z,8.63
2022-11-21T23:11:40.469Z,8.90
2022-11-21T23:14:11.474Z,9.77
2022-11-21T23:16:41.925Z,8.60
2022-11-21T23:19:12.441Z,8.07
2022-11-21T23:21:42.899Z,8.65
2022-11-21T23:24:15.975Z,12.00
2022-11-21T23:26:46.364Z,15.27
2022-11-21T23:29:16.866Z,10.77
2022-11-21T23:31:47.259Z,10.05
2022-11-21T23:34:17.670Z,8.37
2022-11-21T23:36:48.247Z,8.30
2022-11-21T23:39:21.302Z,8.50
2022-11-21T23:41:51.709Z,9.47
2022-11-21T23:44:22.055Z,11.27
2022-11-21T23:46:53.159Z,8.73
2022-11-21T23:49:23.683Z,8.95
2022-11-21T23:51:54.184Z,8.65
2022-11-21T23:54:27.285Z,9.88
2022-11-21T23:56:57.750Z,8.60
2022-11-21T23:59:28.330Z,8.70
